Time;durP1;ratioP1;P1;durP2;ratioP2;P2;SDS_P1;SDS_P2;PMS_P1;PMS_P2;Temp;Humidity;BMP_temperature;BMP_pressure;BME280_temperature;BME280_humidity;BME280_pressure;Samples;Min_cycle;Max_cycle;Signal;HPM_P1;HPM_P2
2021/09/20 00:00:17;;;;;;;9.20;6.00;;;11.60;92.10;;;;;;4850076;29;20152;-76
2021/09/20 00:02:44;;;;;;;8.43;6.00;;;11.60;92.20;;;;;;4873655;29;20056;-77
2021/09/20 00:05:10;;;;;;;8.10;6.20;;;11.60;92.20;;;;;;4858711;29;20482;-77
2021/09/20 00:07:37;;;;;;;8.93;6.63;;;11.50;92.20;;;;;;4892933;29;20036;-77
2021/09/20 00:10:05;;;;;;;7.33;5.43;;;11.50;92.30;;;;;;4895093;29;20473;-77
2021/09/20 00:12:30;;;;;;;8.17;5.57;;;11.40;92.40;;;;;;4879036;29;20044;-77
2021/09/20 00:14:56;;;;;;;8.60;5.60;;;11.40;92.40;;;;;;4895396;29;20036;-76
2021/09/20 00:17:21;;;;;;;8.43;6.50;;;11.40;92.50;;;;;;4864115;29;20508;-77
2021/09/20 00:19:47;;;;;;;6.80;5.70;;;11.40;92.60;;;;;;4861306;29;20077;-77
2021/09/20 00:22:13;;;;;;;8.37;5.83;;;11.30;92.60;;;;;;4858326;29;20055;-77
2021/09/20 00:24:38;;;;;;;7.57;6.30;;;11.30;92.60;;;;;;4896474;29;20036;-77
2021/09/20 00:27:06;;;;;;;8.77;6.50;;;11.30;92.70;;;;;;4865979;29;20035;-77
2021/09/20 00:29:32;;;;;;;8.53;6.47;;;11.20;92.80;;;;;;4859853;29;20032;-77
2021/09/20 00:31:58;;;;;;;7.93;6.67;;;11.20;92.90;;;;;;4862175;29;20041;-77
2021/09/20 00:34:23;;;;;;;8.33;6.40;;;11.20;92.90;;;;;;4878949;29;20045;-77
2021/09/20 00:36:49;;;;;;;8.40;6.63;;;11.10;93.00;;;;;;4862664;29;20033;-77
2021/09/20 00:39:15;;;;;;;9.70;7.13;;;11.10;93.10;;;;;;4855207;29;20085;-77
2021/09/20 00:41:41;;;;;;;9.03;7.00;;;11.10;93.40;;;;;;4845804;29;20384;-77
2021/09/20 00:44:06;;;;;;;10.10;7.20;;;11.10;93.30;;;;;;4878402;29;20025;-77
2021/09/20 00:46:32;;;;;;;8.93;7.30;;;11.10;93.30;;;;;;4861684;29;20029;-77
2021/09/20 00:48:58;;;;;;;9.13;7.10;;;11.00;93.40;;;;;;4857319;29;20140;-77
2021/09/20 00:51:23;;;;;;;9.83;7.90;;;11.10;93.40;;;;;;4835259;29;20043;-77
2021/09/20 00:53:49;;;;;;;10.03;7.53;;;11.00;93.40;;;;;;4861978;29;20033;-77
2021/09/20 00:56:15;;;;;;;9.43;7.50;;;11.00;93.40;;;;;;4880307;29;20040;-77
2021/09/20 00:58:41;;;;;;;9.57;7.60;;;11.00;93.50;;;;;;4878310;29;20059;-77
2021/09/20 01:01:06;;;;;;;11.67;9.57;;;10.90;93.50;;;;;;4859190;29;20041;-78
2021/09/20 01:03:33;;;;;;;11.00;7.83;;;10.90;93.60;;;;;;4880720;29;20111;-78
2021/09/20 01:05:59;;;;;;;14.67;8.83;;;10.90;93.70;;;;;;4896994;29;20065;-78
2021/09/20 01:08:26;;;;;;;9.80;8.37;;;10.90;93.90;;;;;;4877649;29;20041;-78
2021/09/20 01:10:52;;;;;;;15.00;9.30;;;10.80;93.90;;;;;;4881784;29;20043;-77
2021/09/20 01:13:18;;;;;;;13.30;9.57;;;10.80;94.20;;;;;;4901363;29;20032;-77
2021/09/20 01:15:43;;;;;;;11.00;9.00;;;10.80;94.00;;;;;;4875312;29;20028;-78
2021/09/20 01:18:09;;;;;;;12.13;9.07;;;10.80;94.10;;;;;;4880838;29;20116;-78
2021/09/20 01:20:35;;;;;;;15.87;10.40;;;10.80;94.10;;;;;;4894460;29;20044;-78
2021/09/20 01:23:02;;;;;;;13.10;9.87;;;10.70;94.10;;;;;;4864452;29;20032;-78
2021/09/20 01:25:29;;;;;;;13.43;9.60;;;10.70;94.20;;;;;;4856548;29;20069;-77
2021/09/20 01:27:55;;;;;;;11.93;9.37;;;10.70;94.20;;;;;;4860550;29;20036;-78
2021/09/20 01:30:21;;;;;;;18.20;10.23;;;10.70;94.30;;;;;;4878647;29;20048;-78
2021/09/20 01:32:47;;;;;;;13.03;9.07;;;10.60;94.30;;;;;;4890010;29;20458;-77
2021/09/20 01:35:15;;;;;;;14.10;10.37;;;10.60;94.40;;;;;;4865376;29;20060;-78
2021/09/20 01:37:41;;;;;;;12.60;10.60;;;10.60;94.50;;;;;;4878667;29;20393;-78
2021/09/20 01:40:07;;;;;;;13.73;10.77;;;10.60;94.60;;;;;;4853867;29;20045;-77
2021/09/20 01:42:33;;;;;;;15.20;11.00;;;10.50;94.60;;;;;;4845957;29;20501;-77
2021/09/20 01:44:59;;;;;;;13.77;9.67;;;10.50;94.60;;;;;;4844755;29;20036;-77
2021/09/20 01:47:24;;;;;;;16.90;10.80;;;10.50;94.60;;;;;;4856768;29;20037;-78
2021/09/20 01:49:50;;;;;;;13.77;9.97;;;10.50;94.70;;;;;;4844858;29;20450;-78
2021/09/20 01:52:16;;;;;;;13.53;9.53;;;10.50;94.70;;;;;;4845354;29;20048;-78
2021/09/20 01:54:42;;;;;;;11.53;9.07;;;10.50;94.80;;;;;;4861235;29;20533;-78
2021/09/20 01:57:08;;;;;;;16.03;10.50;;;10.40;94.70;;;;;;4861076;29;20113;-78
2021/09/20 01:59:33;;;;;;;13.13;10.33;;;10.40;94.80;;;;;;4890828;29;20446;-77
2021/09/20 02:01:59;;;;;;;13.73;9.90;;;10.40;94.80;;;;;;4863260;29;20096;-78
2021/09/20 02:04:25;;;;;;;13.83;10.30;;;10.30;94.90;;;;;;4864198;29;20033;-77
2021/09/20 02:06:50;;;;;;;12.20;9.47;;;10.30;95.00;;;;;;4863089;29;20100;-77
2021/09/20 02:09:16;;;;;;;11.93;9.40;;;10.30;95.00;;;;;;4862936;29;20118;-77
2021/09/20 02:11:42;;;;;;;14.73;9.90;;;10.20;94.90;;;;;;4879019;29;20044;-77
2021/09/20 02:14:08;;;;;;;12.83;10.33;;;10.30;95.00;;;;;;4848035;29;20493;-76
2021/09/20 02:16:35;;;;;;;14.90;9.80;;;10.20;95.00;;;;;;4896081;29;20025;-77
2021/09/20 02:19:01;;;;;;;13.10;10.43;;;10.30;95.00;;;;;;4878452;29;20206;-76
2021/09/20 02:21:26;;;;;;;14.63;10.23;;;10.20;94.90;;;;;;4879325;29;20553;-77
2021/09/20 02:23:52;;;;;;;13.00;9.90;;;10.20;95.10;;;;;;4895462;29;20065;-77
2021/09/20 02:26:18;;;;;;;13.47;10.60;;;10.20;95.00;;;;;;4869077;29;20097;-76
2021/09/20 02:28:44;;;;;;;17.23;10.50;;;10.20;95.00;;;;;;4859735;29;20453;-78
2021/09/20 02:31:09;;;;;;;15.07;10.43;;;10.10;95.00;;;;;;4894687;29;20024;-77
2021/09/20 02:33:37;;;;;;;16.03;11.13;;;10.10;95.10;;;;;;4879265;29;20064;-77
2021/09/20 02:36:03;;;;;;;18.80;11.40;;;10.10;95.10;;;;;;4876799;29;20398;-77
2021/09/20 02:38:30;;;;;;;13.67;10.87;;;10.00;95.20;;;;;;4879005;29;20036;-77
2021/09/20 02:40:56;;;;;;;15.57;10.63;;;10.00;95.20;;;;;;4895276;29;20120;-77
2021/09/20 02:43:22;;;;;;;16.67;11.00;;;10.00;95.30;;;;;;4879263;29;20080;-77
2021/09/20 02:45:48;;;;;;;18.67;11.50;;;9.90;95.30;;;;;;4892584;29;20029;-77
2021/09/20 02:48:14;;;;;;;17.03;11.70;;;9.90;95.40;;;;;;4878231;29;20537;-76
2021/09/20 02:50:39;;;;;;;17.03;11.37;;;9.80;95.40;;;;;;4895702;29;20064;-76
2021/09/20 02:53:06;;;;;;;17.90;11.60;;;9.80;95.50;;;;;;4895017;29;20044;-77
2021/09/20 02:55:32;;;;;;;16.03;12.23;;;9.80;95.50;;;;;;4878173;29;20033;-76
2021/09/20 02:57:59;;;;;;;22.07;13.60;;;9.70;95.60;;;;;;4878100;29;20060;-77
2021/09/20 03:00:24;;;;;;;18.07;11.87;;;9.70;95.70;;;;;;4878066;29;20045;-77
2021/09/20 03:02:50;;;;;;;17.10;12.97;;;9.70;95.90;;;;;;4847027;29;20029;-78
2021/09/20 03:05:16;;;;;;;19.73;13.13;;;9.70;95.80;;;;;;4862615;29;20028;-77
2021/09/20 03:07:41;;;;;;;17.33;12.33;;;9.70;95.90;;;;;;4863053;29;20044;-78
2021/09/20 03:10:08;;;;;;;18.30;13.27;;;9.60;95.90;;;;;;4877583;29;20080;-78
2021/09/20 03:12:33;;;;;;;20.33;13.33;;;9.60;95.90;;;;;;4895593;29;20127;-78
2021/09/20 03:14:59;;;;;;;18.33;13.27;;;9.60;96.00;;;;;;4878202;29;20055;-78
2021/09/20 03:17:25;;;;;;;18.90;13.80;;;9.60;96.10;;;;;;4892454;29;20037;-78
2021/09/20 03:19:50;;;;;;;17.80;13.57;;;9.50;96.10;;;;;;4861911;29;20071;-78
2021/09/20 03:22:16;;;;;;;18.20;13.90;;;9.50;96.20;;;;;;4878145;29;20115;-78
2021/09/20 03:24:42;;;;;;;20.13;13.80;;;9.50;96.20;;;;;;4878071;29;20032;-78
2021/09/20 03:27:07;;;;;;;19.70;13.07;;;9.40;96.20;;;;;;4862753;29;20044;-78
2021/09/20 03:29:33;;;;;;;19.63;13.67;;;9.40;96.30;;;;;;4876682;29;20454;-77
2021/09/20 03:31:59;;;;;;;19.40;13.73;;;9.40;96.50;;;;;;4862425;29;20390;-79
2021/09/20 03:34:24;;;;;;;20.60;13.23;;;9.40;96.30;;;;;;4895089;29;20043;-78
2021/09/20 03:36:50;;;;;;;20.47;13.83;;;9.40;96.40;;;;;;4850521;29;20478;-79
2021/09/20 03:39:15;;;;;;;20.47;13.70;;;9.40;96.40;;;;;;4859621;29;20486;-78
2021/09/20 03:41:41;;;;;;;20.10;14.73;;;9.40;96.50;;;;;;4844143;29;20486;-78
2021/09/20 03:44:07;;;;;;;18.43;13.80;;;9.30;96.50;;;;;;4858937;29;20048;-78
2021/09/20 03:46:33;;;;;;;22.93;14.97;;;9.30;96.50;;;;;;4859498;29;20036;-78
2021/09/20 03:48:58;;;;;;;20.00;14.07;;;9.30;96.60;;;;;;4853232;29;20367;-79
2021/09/20 03:51:24;;;;;;;18.43;13.53;;;9.30;96.70;;;;;;4828798;29;20037;-78
2021/09/20 03:53:50;;;;;;;21.43;14.60;;;9.30;96.70;;;;;;4874611;29;20037;-79
2021/09/20 03:56:15;;;;;;;18.93;13.57;;;9.30;96.70;;;;;;4865424;29;20446;-78
2021/09/20 03:58:41;;;;;;;19.30;13.47;;;9.20;96.70;;;;;;4867590;29;20068;-78
2021/09/20 04:01:07;;;;;;;20.07;13.73;;;9.20;96.80;;;;;;4858555;29;20052;-78
2021/09/20 04:03:33;;;;;;;18.27;12.77;;;9.20;96.80;;;;;;4859343;29;20048;-78
2021/09/20 04:05:58;;;;;;;20.00;14.40;;;9.20;96.80;;;;;;4847067;29;20033;-79
2021/09/20 04:08:28;;;;;;;18.93;13.83;;;9.20;96.80;;;;;;4847369;29;20029;-78
2021/09/20 04:10:55;;;;;;;17.20;13.83;;;9.20;96.80;;;;;;4877353;29;20071;-79
2021/09/20 04:13:21;;;;;;;22.00;14.47;;;9.20;96.80;;;;;;4878208;29;20572;-79
2021/09/20 04:15:48;;;;;;;16.47;12.80;;;9.20;96.80;;;;;;4892748;29;20370;-79
2021/09/20 04:18:14;;;;;;;18.23;13.50;;;9.10;96.80;;;;;;4861983;29;20493;-78
2021/09/20 04:20:40;;;;;;;20.90;14.10;;;9.10;96.80;;;;;;4862258;29;20055;-78
2021/09/20 04:23:05;;;;;;;22.30;13.90;;;9.10;96.90;;;;;;4877289;29;20028;-78
2021/09/20 04:25:31;;;;;;;24.93;15.00;;;9.10;96.90;;;;;;4894712;29;20036;-78
2021/09/20 04:27:57;;;;;;;18.63;13.83;;;9.00;97.00;;;;;;4892920;29;20028;-79
2021/09/20 04:30:22;;;;;;;22.20;15.13;;;9.10;97.10;;;;;;4877721;29;20024;-78
2021/09/20 04:32:48;;;;;;;21.47;15.17;;;9.00;97.10;;;;;;4893503;29;20069;-78
2021/09/20 04:35:14;;;;;;;22.10;14.83;;;9.00;97.10;;;;;;4876540;29;20061;-78
2021/09/20 04:37:40;;;;;;;24.47;15.63;;;9.00;97.10;;;;;;4878560;29;20036;-78
2021/09/20 04:40:07;;;;;;;21.27;14.63;;;9.00;97.20;;;;;;4864807;29;20033;-78
2021/09/20 04:42:32;;;;;;;21.77;15.53;;;9.00;97.20;;;;;;4881480;29;20033;-78
2021/09/20 04:44:58;;;;;;;22.50;15.60;;;9.00;97.20;;;;;;4897458;29;20452;-79
2021/09/20 04:47:24;;;;;;;20.33;14.07;;;8.90;97.30;;;;;;4854060;29;20089;-78
2021/09/20 04:49:49;;;;;;;21.10;14.97;;;8.90;97.30;;;;;;4880738;29;20036;-78
2021/09/20 04:52:15;;;;;;;22.13;14.77;;;8.80;97.30;;;;;;4897303;29;20037;-78
2021/09/20 04:54:41;;;;;;;22.83;14.37;;;8.80;97.30;;;;;;4865312;29;20036;-78
2021/09/20 04:57:06;;;;;;;22.17;13.60;;;8.80;97.30;;;;;;4888688;29;20036;-79
2021/09/20 04:59:32;;;;;;;18.97;13.80;;;8.80;97.30;;;;;;4862001;29;20065;-78
2021/09/20 05:01:57;;;;;;;20.03;14.47;;;8.80;97.30;;;;;;4864195;29;20048;-79
2021/09/20 05:04:23;;;;;;;18.43;13.10;;;8.80;97.30;;;;;;4879656;29;20517;-78
2021/09/20 05:06:49;;;;;;;17.13;13.03;;;8.90;97.50;;;;;;4876665;29;20033;-78
2021/09/20 05:09:15;;;;;;;18.67;13.20;;;8.90;97.30;;;;;;4878129;29;20059;-78
2021/09/20 05:11:40;;;;;;;19.43;13.13;;;8.90;97.30;;;;;;4861903;29;20427;-78
2021/09/20 05:14:06;;;;;;;19.43;13.40;;;8.90;97.30;;;;;;4830561;29;20093;-78
2021/09/20 05:16:32;;;;;;;18.77;13.70;;;8.90;97.30;;;;;;4882861;29;20029;-78
2021/09/20 05:18:57;;;;;;;21.20;14.80;;;8.90;97.20;;;;;;4880038;29;20032;-78
2021/09/20 05:21:24;;;;;;;26.20;15.30;;;8.90;97.20;;;;;;4879724;29;20690;-79
2021/09/20 05:23:50;;;;;;;20.50;14.83;;;8.90;97.20;;;;;;4880329;29;20041;-78
2021/09/20 05:26:17;;;;;;;21.57;15.27;;;8.90;97.30;;;;;;4878972;29;20092;-78
2021/09/20 05:28:43;;;;;;;18.87;13.93;;;8.90;97.30;;;;;;4897206;29;20036;-78
2021/09/20 05:31:09;;;;;;;19.53;13.63;;;8.90;97.30;;;;;;4879043;29;20037;-78
2021/09/20 05:33:35;;;;;;;16.80;13.00;;;8.90;97.30;;;;;;4897118;29;20484;-78
2021/09/20 05:36:05;;;;;;;21.90;14.23;;;9.00;97.30;;;;;;4880136;29;20441;-79
2021/09/20 05:38:32;;;;;;;19.30;13.87;;;9.10;97.30;;;;;;4864591;29;20029;-79
2021/09/20 05:40:58;;;;;;;18.07;13.53;;;9.40;97.50;;;;;;4896753;29;20037;-79
2021/09/20 05:43:24;;;;;;;18.10;13.43;;;9.80;97.30;;;;;;4879256;29;20034;-80
2021/09/20 05:45:49;;;;;;;18.17;12.97;;;10.30;96.90;;;;;;4879838;29;20029;-80
2021/09/20 05:48:16;;;;;;;18.20;11.70;;;10.80;96.10;;;;;;4879366;29;20139;-79
2021/09/20 05:50:43;;;;;;;16.03;11.47;;;11.30;95.30;;;;;;4845219;29;20093;-79
2021/09/20 05:53:08;;;;;;;13.73;10.93;;;11.80;93.80;;;;;;4860576;29;20067;-80
2021/09/20 05:55:34;;;;;;;12.90;9.80;;;12.30;92.60;;;;;;4846015;29;20073;-79
2021/09/20 05:58:00;;;;;;;12.87;9.80;;;12.70;91.40;;;;;;4875211;29;20492;-79
2021/09/20 06:00:26;;;;;;;15.20;10.13;;;13.20;90.40;;;;;;4893630;29;20028;-79
2021/09/20 06:02:52;;;;;;;11.48;8.75;;;13.60;87.90;;;;;;4863078;29;20032;-78
2021/09/20 06:05:18;;;;;;;12.45;8.82;;;14.00;85.70;;;;;;4883726;29;20037;-79
2021/09/20 06:07:44;;;;;;;10.82;8.77;;;14.50;83.40;;;;;;4853753;29;20041;-78
2021/09/20 06:10:11;;;;;;;11.70;9.10;;;15.00;81.00;;;;;;4881981;29;20386;-78
2021/09/20 06:12:37;;;;;;;10.88;7.82;;;15.40;78.70;;;;;;4849972;29;20029;-79
2021/09/20 06:15:04;;;;;;;13.20;8.23;;;15.60;76.80;;;;;;4849916;29;20040;-79
2021/09/20 06:17:30;;;;;;;14.15;9.45;;;15.50;75.00;;;;;;4867213;29;20615;-79
2021/09/20 06:19:56;;;;;;;10.02;7.85;;;15.30;75.20;;;;;;4860209;29;20146;-79
2021/09/20 06:22:22;;;;;;;11.30;8.98;;;15.00;76.10;;;;;;4883031;29;20036;-78
2021/09/20 06:24:47;;;;;;;12.30;9.00;;;14.80;76.40;;;;;;4866783;29;20503;-79
2021/09/20 06:27:13;;;;;;;10.55;8.73;;;14.70;76.50;;;;;;4851613;29;20504;-78
2021/09/20 06:29:38;;;;;;;12.75;9.20;;;14.40;76.50;;;;;;4873773;29;20032;-78
2021/09/20 06:32:04;;;;;;;12.77;9.38;;;14.20;77.20;;;;;;4880750;29;20048;-78
2021/09/20 06:34:30;;;;;;;10.10;8.60;;;14.00;77.80;;;;;;4899744;29;20024;-78
2021/09/20 06:36:56;;;;;;;14.85;9.77;;;14.10;79.00;;;;;;4880097;29;20079;-79
2021/09/20 06:39:21;;;;;;;12.27;9.32;;;14.30;77.50;;;;;;4881106;29;20032;-78
2021/09/20 06:41:47;;;;;;;14.32;9.52;;;14.70;76.60;;;;;;4882392;29;20413;-78
2021/09/20 06:44:13;;;;;;;12.75;9.05;;;15.20;75.40;;;;;;4880649;29;20044;-79
2021/09/20 06:46:38;;;;;;;15.02;8.68;;;15.50;74.60;;;;;;4873237;29;20036;-78
2021/09/20 06:49:05;;;;;;;11.35;8.48;;;16.10;73.40;;;;;;4871924;29;20161;-78
2021/09/20 06:51:31;;;;;;;13.75;7.78;;;16.60;72.50;;;;;;4858050;29;20509;-78
2021/09/20 06:53:57;;;;;;;11.77;8.32;;;17.10;70.20;;;;;;4865650;29;20092;-78
2021/09/20 06:56:23;;;;;;;9.63;8.63;;;17.20;69.20;;;;;;4831098;29;20029;-79
2021/09/20 06:58:48;;;;;;;12.70;8.23;;;17.20;69.10;;;;;;4869754;29;20050;-79
2021/09/20 07:01:14;;;;;;;10.15;7.95;;;17.20;68.70;;;;;;4879119;29;20434;-78
2021/09/20 07:03:41;;;;;;;11.93;8.23;;;17.30;68.50;;;;;;4880511;29;20032;-78
2021/09/20 07:06:07;;;;;;;9.73;8.07;;;17.70;68.50;;;;;;4897818;29;20028;-78
2021/09/20 07:08:33;;;;;;;12.02;8.90;;;18.00;67.50;;;;;;4881013;29;20036;-78
2021/09/20 07:10:59;;;;;;;9.38;8.30;;;18.20;65.50;;;;;;4898197;29;20029;-77
2021/09/20 07:13:24;;;;;;;9.35;7.82;;;18.00;65.30;;;;;;4876691;29;20036;-78
2021/09/20 07:15:50;;;;;;;10.57;8.25;;;17.60;66.00;;;;;;4869654;29;20045;-78
2021/09/20 07:18:16;;;;;;;9.48;8.50;;;17.40;66.80;;;;;;4868901;29;20095;-78
2021/09/20 07:20:44;;;;;;;9.90;8.30;;;17.80;66.00;;;;;;4865693;29;20139;-78
2021/09/20 07:23:10;;;;;;;9.82;8.07;;;17.90;65.30;;;;;;4859434;29;20036;-78
2021/09/20 07:25:35;;;;;;;10.35;8.95;;;17.60;66.10;;;;;;4889100;29;20611;-79
2021/09/20 07:28:01;;;;;;;9.57;8.10;;;17.30;66.90;;;;;;4869680;29;20029;-79
2021/09/20 07:30:27;;;;;;;12.95;9.07;;;16.90;66.90;;;;;;4867018;29;20033;-79
2021/09/20 07:32:53;;;;;;;9.75;8.75;;;17.00;68.40;;;;;;4836149;29;20069;-79
2021/09/20 07:35:20;;;;;;;11.38;8.95;;;17.40;66.90;;;;;;4894615;29;20055;-80
2021/09/20 07:37:48;;;;;;;13.23;9.38;;;17.90;65.80;;;;;;4878390;29;20032;-79
2021/09/20 07:40:15;;;;;;;9.90;8.50;;;17.80;65.60;;;;;;4868531;29;20484;-79
2021/09/20 07:42:41;;;;;;;11.90;9.32;;;17.50;65.70;;;;;;4853298;29;20052;-78
2021/09/20 07:45:08;;;;;;;13.10;9.48;;;17.00;66.80;;;;;;4889312;29;20145;-79
2021/09/20 07:47:34;;;;;;;10.43;9.32;;;17.00;67.60;;;;;;4861750;29;20394;-78
2021/09/20 07:50:00;;;;;;;11.75;9.15;;;17.10;67.10;;;;;;4884942;29;20029;-79
2021/09/20 07:52:26;;;;;;;12.02;9.52;;;17.20;67.20;;;;;;4871435;29;20036;-78
2021/09/20 07:54:52;;;;;;;10.65;7.80;;;17.60;67.30;;;;;;4865794;29;20044;-78
2021/09/20 07:57:18;;;;;;;10.05;8.75;;;18.00;66.20;;;;;;4876250;29;20064;-78
2021/09/20 07:59:45;;;;;;;11.95;10.13;;;18.10;65.90;;;;;;4862988;29;20068;-78
2021/09/20 08:02:10;;;;;;;11.32;8.85;;;18.20;64.70;;;;;;4879518;29;20037;-78
2021/09/20 08:04:36;;;;;;;11.50;8.77;;;18.40;65.80;;;;;;4861782;29;20037;-78
2021/09/20 08:07:02;;;;;;;13.65;8.80;;;19.00;64.10;;;;;;4855528;29;20037;-79
2021/09/20 08:09:28;;;;;;;9.80;8.45;;;19.30;63.10;;;;;;4860753;29;20029;-78
2021/09/20 08:11:53;;;;;;;10.63;8.57;;;19.80;62.10;;;;;;4864474;29;20064;-79
2021/09/20 08:14:19;;;;;;;9.15;8.10;;;20.50;61.60;;;;;;4852658;29;20029;-79
2021/09/20 08:16:45;;;;;;;10.13;7.90;;;21.00;59.90;;;;;;4866874;29;20029;-79
2021/09/20 08:19:11;;;;;;;10.65;8.27;;;21.30;57.80;;;;;;4863187;29;20034;-77
2021/09/20 08:21:36;;;;;;;9.18;8.23;;;21.70;55.30;;;;;;4857695;29;21676;-77
2021/09/20 08:24:02;;;;;;;9.77;7.72;;;21.50;55.10;;;;;;4879086;29;20025;-78
2021/09/20 08:26:29;;;;;;;13.82;9.00;;;20.80;57.10;;;;;;4878530;29;20041;-78
2021/09/20 08:28:55;;;;;;;8.27;7.40;;;20.50;56.50;;;;;;4848388;29;20059;-77
2021/09/20 08:31:21;;;;;;;11.25;8.48;;;20.30;59.00;;;;;;4833082;29;20121;-78
2021/09/20 08:33:46;;;;;;;8.90;7.65;;;20.60;56.90;;;;;;4844753;29;20378;-77
2021/09/20 08:36:13;;;;;;;9.45;7.60;;;20.60;57.70;;;;;;4855749;29;20037;-78
2021/09/20 08:38:39;;;;;;;9.10;7.40;;;20.90;57.80;;;;;;4861145;29;20497;-77
2021/09/20 08:41:04;;;;;;;8.70;7.60;;;21.60;56.00;;;;;;4879886;29;20041;-78
2021/09/20 08:43:31;;;;;;;10.30;7.07;;;21.40;55.30;;;;;;4880400;29;20064;-78
2021/09/20 08:46:02;;;;;;;10.38;8.23;;;21.20;55.50;;;;;;4863680;29;20033;-79
2021/09/20 08:48:28;;;;;;;9.43;7.38;;;21.30;55.40;;;;;;4859880;29;20501;-81
2021/09/20 08:50:54;;;;;;;11.93;7.95;;;21.30;55.20;;;;;;4863924;29;20032;-79
2021/09/20 08:53:19;;;;;;;9.70;7.82;;;21.20;55.20;;;;;;4858674;29;20343;-79
2021/09/20 08:55:45;;;;;;;8.73;7.82;;;21.70;54.80;;;;;;4857815;29;20460;-79
2021/09/20 08:58:11;;;;;;;8.95;7.35;;;21.40;53.60;;;;;;4863386;29;20049;-80
2021/09/20 09:00:36;;;;;;;10.63;8.48;;;20.90;54.90;;;;;;4849448;29;20102;-79
2021/09/20 09:03:04;;;;;;;8.20;7.15;;;20.70;55.50;;;;;;4848737;29;20033;-78
2021/09/20 09:05:32;;;;;;;8.02;7.22;;;20.90;56.80;;;;;;4862016;29;20478;-78
2021/09/20 09:08:01;;;;;;;13.30;7.35;;;21.40;55.00;;;;;;4843640;29;20056;-79
2021/09/20 09:10:31;;;;;;;8.73;7.38;;;21.30;53.90;;;;;;4870277;29;20061;-78
2021/09/20 09:12:57;;;;;;;10.55;7.90;;;20.70;54.90;;;;;;4864001;29;20057;-79
2021/09/20 09:15:24;;;;;;;8.80;7.30;;;20.30;56.30;;;;;;4881192;29;20037;-77
2021/09/20 09:17:55;;;;;;;9.20;7.80;;;20.10;56.60;;;;;;4861190;29;20048;-78
2021/09/20 09:20:28;;;;;;;9.20;7.20;;;20.50;57.30;;;;;;4864145;29;20513;-78
2021/09/20 09:23:00;;;;;;;8.23;6.82;;;21.30;56.20;;;;;;4864413;29;20029;-79
2021/09/20 09:25:36;;;;;;;8.98;7.03;;;22.00;53.30;;;;;;4864944;29;20065;-79
2021/09/20 09:28:12;;;;;;;7.30;6.50;;;22.40;51.50;;;;;;4893408;29;20076;-78
2021/09/20 09:30:44;;;;;;;6.82;6.22;;;22.70;52.40;;;;;;4862544;29;20028;-78
2021/09/20 09:33:15;;;;;;;9.18;7.32;;;22.90;51.00;;;;;;4863982;29;20065;-79
2021/09/20 09:35:52;;;;;;;7.40;6.70;;;22.10;51.00;;;;;;4877096;29;20084;-79
2021/09/20 09:38:19;;;;;;;12.15;7.68;;;21.70;53.70;;;;;;4863045;29;20036;-78
2021/09/20 09:40:49;;;;;;;8.13;7.32;;;21.80;52.30;;;;;;4855639;29;20065;-79
2021/09/20 09:43:25;;;;;;;8.27;7.43;;;21.50;53.50;;;;;;4861441;29;20033;-79
2021/09/20 09:45:51;;;;;;;9.43;7.53;;;21.50;54.10;;;;;;4860661;29;20156;-78
2021/09/20 09:48:19;;;;;;;9.73;7.95;;;21.40;52.60;;;;;;4859929;29;20037;-78
2021/09/20 09:50:54;;;;;;;10.52;8.05;;;21.40;53.70;;;;;;4858993;29;20037;-79
2021/09/20 09:53:26;;;;;;;13.93;8.40;;;21.40;52.30;;;;;;4842788;29;20030;-79
2021/09/20 09:55:53;;;;;;;7.80;7.03;;;21.10;53.90;;;;;;4858046;29;20033;-79
2021/09/20 09:58:20;;;;;;;9.00;7.72;;;21.60;54.40;;;;;;4876847;29;20084;-80
2021/09/20 10:00:46;;;;;;;7.10;6.40;;;22.00;53.30;;;;;;4852921;29;20041;-79
2021/09/20 10:03:12;;;;;;;7.80;6.95;;;21.70;52.90;;;;;;4857966;29;20033;-78
2021/09/20 10:05:38;;;;;;;8.20;7.32;;;21.70;53.00;;;;;;4845249;29;20036;-80
2021/09/20 10:08:12;;;;;;;7.88;7.07;;;21.60;52.30;;;;;;4877206;29;20599;-81
2021/09/20 10:10:40;;;;;;;7.00;6.30;;;21.70;52.60;;;;;;4844554;29;20053;-78
2021/09/20 10:13:08;;;;;;;6.13;5.53;;;22.10;52.60;;;;;;4857804;29;20050;-79
2021/09/20 10:15:35;;;;;;;9.55;6.82;;;22.60;51.40;;;;;;4872965;29;20172;-78
2021/09/20 10:18:03;;;;;;;7.25;6.55;;;22.00;51.30;;;;;;4873684;29;20033;-79
2021/09/20 10:20:29;;;;;;;7.18;6.13;;;22.00;51.90;;;;;;4851276;29;20053;-80
2021/09/20 10:22:56;;;;;;;8.13;6.07;;;22.10;50.80;;;;;;4855324;29;20033;-79
2021/09/20 10:25:24;;;;;;;5.95;5.45;;;22.00;51.00;;;;;;4872938;29;20093;-79
2021/09/20 10:27:50;;;;;;;5.20;4.20;;;22.30;50.70;;;;;;4858231;29;20394;-79
2021/09/20 10:30:19;;;;;;;4.13;3.80;;;22.70;51.10;;;;;;4839258;29;20048;-79
2021/09/20 10:32:54;;;;;;;4.18;3.63;;;23.80;49.50;;;;;;4876301;29;20033;-79
2021/09/20 10:35:55;;;;;;;4.28;3.88;;;24.70;48.00;;;;;;4858412;29;20101;-80
2021/09/20 10:38:21;;;;;;;6.43;3.88;;;25.00;43.90;;;;;;4771744;29;20038;-78
2021/09/20 10:41:09;;;;;;;5.25;3.63;;;24.70;44.60;;;;;;4864084;29;20056;-80
2021/09/20 10:43:36;;;;;;;4.45;3.35;;;23.80;44.80;;;;;;4862575;29;20040;-79
2021/09/20 10:46:04;;;;;;;4.50;3.03;;;22.20;45.50;;;;;;4879998;29;20037;-79
2021/09/20 10:48:41;;;;;;;4.25;3.85;;;21.40;48.70;;;;;;4862017;29;20431;-79
2021/09/20 10:51:13;;;;;;;3.97;3.60;;;21.30;49.60;;;;;;4874525;29;20029;-80
2021/09/20 10:53:40;;;;;;;4.43;3.80;;;21.80;49.10;;;;;;4862002;29;20116;-79
2021/09/20 10:56:07;;;;;;;4.38;3.97;;;21.90;47.40;;;;;;4861537;29;20062;-78
2021/09/20 10:58:37;;;;;;;4.07;3.75;;;21.20;48.00;;;;;;4883801;29;20055;-79
2021/09/20 11:01:11;;;;;;;4.93;4.07;;;20.40;50.50;;;;;;4863717;29;20041;-80
2021/09/20 11:03:43;;;;;;;3.60;3.30;;;19.90;51.90;;;;;;4864158;29;20028;-79
2021/09/20 11:06:20;;;;;;;7.15;4.38;;;19.90;52.00;;;;;;4870259;29;20985;-79
2021/09/20 11:08:57;;;;;;;5.93;3.97;;;19.80;52.20;;;;;;4871873;29;20029;-78
2021/09/20 11:11:42;;;;;;;5.68;4.32;;;20.00;52.50;;;;;;4856377;29;20048;-79
2021/09/20 11:14:13;;;;;;;4.45;4.05;;;20.00;53.00;;;;;;4872926;29;20730;-79
2021/09/20 11:16:50;;;;;;;4.15;3.70;;;20.10;52.70;;;;;;4872981;29;20417;-79
2021/09/20 11:19:25;;;;;;;4.90;4.47;;;20.30;53.50;;;;;;4873095;29;20591;-79
2021/09/20 11:22:13;;;;;;;5.28;3.75;;;20.30;52.60;;;;;;4866182;29;20055;-79
2021/09/20 11:24:44;;;;;;;6.13;3.90;;;20.00;53.50;;;;;;4890494;29;20096;-78
2021/09/20 11:27:31;;;;;;;4.50;4.05;;;19.90;53.20;;;;;;4880809;29;20522;-78
2021/09/20 11:30:00;;;;;;;4.38;3.97;;;19.80;52.90;;;;;;4885669;29;20033;-78
2021/09/20 11:32:26;;;;;;;4.35;3.65;;;19.40;52.90;;;;;;4869422;29;20039;-78
2021/09/20 11:34:55;;;;;;;4.28;3.88;;;19.50;53.50;;;;;;4873565;29;20037;-79
2021/09/20 11:37:31;;;;;;;3.67;3.10;;;20.00;54.40;;;;;;4874302;29;20112;-80
2021/09/20 11:40:11;;;;;;;3.40;3.10;;;20.30;52.50;;;;;;4889774;29;20025;-80
2021/09/20 11:42:37;;;;;;;5.95;3.80;;;20.50;52.00;;;;;;4888350;29;20450;-79
2021/09/20 11:45:16;;;;;;;5.07;3.60;;;20.70;51.20;;;;;;4887537;29;20116;-79
2021/09/20 11:47:47;;;;;;;5.32;3.78;;;20.70;50.70;;;;;;4874571;29;20102;-80
2021/09/20 11:50:20;;;;;;;4.47;3.67;;;20.70;50.90;;;;;;4892166;29;20507;-80
2021/09/20 11:52:47;;;;;;;;;;;20.50;50.90;;;;;;4890984;29;20116;-79
2021/09/20 11:55:22;;;;;;;4.22;3.83;;;20.30;51.20;;;;;;4888626;29;20766;-78
2021/09/20 11:57:50;;;;;;;4.75;4.35;;;20.30;51.70;;;;;;4886295;29;20032;-78
2021/09/20 12:00:19;;;;;;;6.28;5.30;;;20.20;51.80;;;;;;4885786;29;20032;-79
2021/09/20 12:02:50;;;;;;;7.07;4.88;;;20.00;51.50;;;;;;4871286;29;20051;-79
2021/09/20 12:05:26;;;;;;;4.68;4.25;;;19.60;52.30;;;;;;4865246;29;20389;-79
2021/09/20 12:07:58;;;;;;;10.20;5.15;;;19.70;53.80;;;;;;4870555;29;20120;-79
2021/09/20 12:10:26;;;;;;;5.55;4.35;;;19.70;52.20;;;;;;4869382;29;20595;-78
2021/09/20 12:12:54;;;;;;;4.60;3.63;;;19.50;53.10;;;;;;4870166;29;20032;-78
2021/09/20 12:15:26;;;;;;;4.78;4.05;;;19.30;53.10;;;;;;4891446;29;20045;-80
2021/09/20 12:18:03;;;;;;;5.25;4.55;;;19.10;53.40;;;;;;4893444;29;20380;-78
2021/09/20 12:20:31;;;;;;;7.25;4.18;;;18.90;53.60;;;;;;4859509;29;20044;-79
2021/09/20 12:22:57;;;;;;;6.03;4.88;;;18.90;53.70;;;;;;4870664;29;20100;-80
2021/09/20 12:25:32;;;;;;;4.55;4.10;;;18.80;53.80;;;;;;4876506;29;20037;-79
2021/09/20 12:27:59;;;;;;;6.28;4.32;;;18.90;54.30;;;;;;4892957;29;20520;-78
2021/09/20 12:30:27;;;;;;;6.38;4.65;;;19.00;53.90;;;;;;4874440;29;20040;-79
2021/09/20 12:33:12;;;;;;;6.55;4.65;;;19.00;52.80;;;;;;4891997;29;20036;-82
2021/09/20 12:35:40;;;;;;;4.07;3.67;;;18.90;53.30;;;;;;4875963;29;20124;-78
2021/09/20 12:38:17;;;;;;;5.82;4.15;;;18.90;54.50;;;;;;4894234;29;20029;-78
2021/09/20 12:40:43;;;;;;;4.60;3.70;;;19.10;53.20;;;;;;4901009;29;20036;-78